createdAt,value
2017-11-12T00:01:53.802Z,6.00
2017-11-12T00:04:19.771Z,6.00
2017-11-12T00:06:45.758Z,6.10
2017-11-12T00:09:11.711Z,6.00
2017-11-12T00:11:37.693Z,6.00
2017-11-12T00:14:03.634Z,6.00
2017-11-12T00:16:30.347Z,5.90
2017-11-12T00:18:56.316Z,5.90
2017-11-12T00:21:23.082Z,6.00
2017-11-12T00:23:49.773Z,6.00
2017-11-12T00:26:15.774Z,5.90
2017-11-12T00:28:42.467Z,6.00
2017-11-12T00:31:08.429Z,5.90
2017-11-12T00:33:34.405Z,6.00
2017-11-12T00:36:01.094Z,6.00
2017-11-12T00:38:27.069Z,5.90
2017-11-12T00:40:53.013Z,6.00
2017-11-12T00:43:19.728Z,6.00
2017-11-12T00:45:45.669Z,6.00
2017-11-12T00:48:11.677Z,5.90
2017-11-12T00:50:37.668Z,5.90
2017-11-12T00:53:03.613Z,5.90
2017-11-12T00:55:30.335Z,5.80
2017-11-12T00:57:56.287Z,5.80
2017-11-12T01:00:22.254Z,5.80
2017-11-12T01:02:48.219Z,5.90
2017-11-12T01:05:14.203Z,5.80
2017-11-12T01:07:40.963Z,5.70
2017-11-12T01:10:06.923Z,5.70
2017-11-12T01:12:32.894Z,5.90
2017-11-12T01:14:58.849Z,5.70
2017-11-12T01:17:24.794Z,5.80
2017-11-12T01:19:50.768Z,5.80
2017-11-12T01:22:16.710Z,5.80
2017-11-12T01:24:42.640Z,5.80
2017-11-12T01:27:08.622Z,5.70
2017-11-12T01:29:34.578Z,5.70
2017-11-12T01:32:01.300Z,5.70
2017-11-12T01:34:27.240Z,5.70
2017-11-12T01:36:53.205Z,5.70
2017-11-12T01:39:19.914Z,5.80
2017-11-12T01:41:45.845Z,5.80
2017-11-12T01:44:11.821Z,5.80
2017-11-12T01:46:38.517Z,5.80
2017-11-12T01:49:04.488Z,5.80
2017-11-12T01:51:30.422Z,5.80
2017-11-12T01:53:56.399Z,5.70
2017-11-12T01:56:22.325Z,5.70
2017-11-12T01:58:49.034Z,5.70
2017-11-12T02:01:15.011Z,5.70
2017-11-12T02:03:41.727Z,5.70
2017-11-12T02:06:07.707Z,5.70
2017-11-12T02:08:34.378Z,5.90
2017-11-12T02:11:00.329Z,5.90
2017-11-12T02:13:26.307Z,5.70
2017-11-12T02:15:52.279Z,5.60
2017-11-12T02:18:18.226Z,5.60
2017-11-12T02:20:44.174Z,5.70
2017-11-12T02:23:10.207Z,5.90
2017-11-12T02:25:36.179Z,5.80
2017-11-12T02:28:02.124Z,5.80
2017-11-12T02:30:28.081Z,5.70
2017-11-12T02:32:54.818Z,5.80
2017-11-12T02:35:21.534Z,5.90
2017-11-12T02:37:47.465Z,5.80
2017-11-12T02:40:13.393Z,5.70
2017-11-12T02:42:39.370Z,5.70
2017-11-12T02:45:05.351Z,5.70
2017-11-12T02:47:31.283Z,5.70
2017-11-12T02:49:57.218Z,5.60
2017-11-12T02:52:23.187Z,5.70
2017-11-12T02:54:49.126Z,5.70
2017-11-12T02:57:15.135Z,5.80
2017-11-12T02:59:41.063Z,5.90
2017-11-12T03:02:07.014Z,5.80
2017-11-12T03:04:32.993Z,5.80
2017-11-12T03:06:58.959Z,5.80
2017-11-12T03:09:24.957Z,5.70
2017-11-12T03:11:51.699Z,5.70
2017-11-12T03:14:17.688Z,5.70
2017-11-12T03:16:43.635Z,5.70
2017-11-12T03:19:09.638Z,5.80
2017-11-12T03:21:36.359Z,5.70
2017-11-12T03:24:02.347Z,5.70
2017-11-12T03:26:28.283Z,5.90
2017-11-12T03:28:54.226Z,5.80
2017-11-12T03:31:20.205Z,5.80
2017-11-12T03:33:46.143Z,5.80
2017-11-12T03:36:12.123Z,5.80
2017-11-12T03:38:38.153Z,5.70
2017-11-12T03:41:04.185Z,5.60
2017-11-12T03:43:30.862Z,5.60
2017-11-12T03:45:56.789Z,5.60
2017-11-12T03:48:22.758Z,5.70
2017-11-12T03:50:48.690Z,5.70
2017-11-12T03:53:14.659Z,5.60
2017-11-12T03:55:47.662Z,5.70
2017-11-12T03:58:14.399Z,5.70
2017-11-12T04:00:40.379Z,5.70
2017-11-12T04:03:06.314Z,5.70
2017-11-12T04:05:32.282Z,5.70
2017-11-12T04:07:58.216Z,5.70
2017-11-12T04:10:24.186Z,5.70
2017-11-12T04:12:50.122Z,5.80
2017-11-12T04:15:16.119Z,5.90
2017-11-12T04:17:42.057Z,5.80
2017-11-12T04:20:08.002Z,5.80
2017-11-12T04:22:33.974Z,5.70
2017-11-12T04:25:00.702Z,5.80
2017-11-12T04:27:26.639Z,5.80
2017-11-12T04:29:52.582Z,5.90
2017-11-12T04:32:18.562Z,5.90
2017-11-12T04:34:44.498Z,5.80
2017-11-12T04:37:10.515Z,5.70
2017-11-12T04:39:37.207Z,5.60
2017-11-12T04:42:03.174Z,5.60
2017-11-12T04:44:29.123Z,5.50
2017-11-12T04:47:02.987Z,5.40
2017-11-12T04:49:28.927Z,5.40
2017-11-12T04:51:54.939Z,5.50
2017-11-12T04:54:20.918Z,5.50
2017-11-12T04:56:46.887Z,5.50
2017-11-12T04:59:13.575Z,5.20
2017-11-12T05:01:39.570Z,5.10
2017-11-12T05:04:05.510Z,5.10
2017-11-12T05:06:32.195Z,5.10
2017-11-12T05:08:58.161Z,5.10
2017-11-12T05:11:24.110Z,5.00
2017-11-12T05:13:50.087Z,5.00
2017-11-12T05:16:16.798Z,5.00
2017-11-12T05:18:42.782Z,4.90
2017-11-12T05:21:08.739Z,5.00
2017-11-12T05:23:34.729Z,4.80
2017-11-12T05:26:01.410Z,4.80
2017-11-12T05:28:27.382Z,4.80
2017-11-12T05:30:53.353Z,4.70
2017-11-12T05:33:20.070Z,4.70
2017-11-12T05:35:46.078Z,4.70
2017-11-12T05:38:12.023Z,4.70
2017-11-12T05:40:37.975Z,4.70
2017-11-12T05:43:03.970Z,4.60
2017-11-12T05:45:29.909Z,4.50
2017-11-12T05:47:55.919Z,4.50
2017-11-12T05:50:21.859Z,4.40
2017-11-12T05:52:48.543Z,4.30
2017-11-12T05:55:14.518Z,4.30
2017-11-12T05:57:40.465Z,4.30
2017-11-12T06:00:06.410Z,4.30
2017-11-12T06:02:32.378Z,4.40
2017-11-12T06:04:58.310Z,4.30
2017-11-12T06:07:24.330Z,4.30
2017-11-12T06:09:50.286Z,4.30
2017-11-12T06:12:16.221Z,4.20
2017-11-12T06:14:42.210Z,4.10
2017-11-12T06:17:08.185Z,4.10
2017-11-12T06:19:34.122Z,4.00
2017-11-12T06:22:00.112Z,4.00
2017-11-12T06:24:26.095Z,4.10
2017-11-12T06:26:52.091Z,4.00
2017-11-12T06:29:18.082Z,3.80
2017-11-12T06:31:44.035Z,3.80
2017-11-12T06:34:10.025Z,3.80
2017-11-12T06:36:36.757Z,3.90
2017-11-12T06:39:02.710Z,3.90
2017-11-12T06:41:29.391Z,3.70
2017-11-12T06:43:55.371Z,3.80
2017-11-12T06:46:21.324Z,3.70
2017-11-12T06:48:47.302Z,3.70
2017-11-12T06:51:13.243Z,3.70
2017-11-12T06:53:39.211Z,3.80
2017-11-12T06:56:05.184Z,4.00
2017-11-12T06:58:31.898Z,4.20
2017-11-12T07:00:57.886Z,4.20
2017-11-12T07:03:23.850Z,4.20
2017-11-12T07:05:49.832Z,4.20
2017-11-12T07:08:15.798Z,4.20
2017-11-12T07:10:41.774Z,4.40
2017-11-12T07:13:07.790Z,4.30
2017-11-12T07:15:33.722Z,4.50
2017-11-12T07:17:59.702Z,4.50
2017-11-12T07:20:25.638Z,4.50
2017-11-12T07:22:51.586Z,4.60
2017-11-12T07:25:18.310Z,4.80
2017-11-12T07:27:45.028Z,4.80
2017-11-12T07:30:11.032Z,4.70
2017-11-12T07:32:37.727Z,4.90
2017-11-12T07:35:03.709Z,4.90
2017-11-12T07:37:29.658Z,5.10
2017-11-12T07:39:56.380Z,4.90
2017-11-12T07:42:22.335Z,4.90
2017-11-12T07:44:48.371Z,4.90
2017-11-12T07:47:15.070Z,5.20
2017-11-12T07:49:41.090Z,5.20
2017-11-12T07:52:07.039Z,5.20
2017-11-12T07:54:33.010Z,5.30
2017-11-12T07:56:58.994Z,5.30
2017-11-12T07:59:25.038Z,5.30
2017-11-12T08:01:51.007Z,5.50
2017-11-12T08:04:16.994Z,5.60
2017-11-12T08:06:43.694Z,5.90
2017-11-12T08:09:09.666Z,5.90
2017-11-12T08:11:36.387Z,6.00
2017-11-12T08:14:02.330Z,5.90
2017-11-12T08:16:28.271Z,5.90
2017-11-12T08:18:54.251Z,6.00
2017-11-12T08:21:20.249Z,6.00
2017-11-12T08:23:47.678Z,6.10
2017-11-12T08:26:14.404Z,6.20
2017-11-12T08:28:40.354Z,6.20
2017-11-12T08:31:06.376Z,6.20
2017-11-12T08:33:32.352Z,6.30
2017-11-12T08:35:58.348Z,6.40
2017-11-12T08:38:24.299Z,6.50
2017-11-12T08:40:50.273Z,6.60
2017-11-12T08:43:16.213Z,6.60
2017-11-12T08:45:42.222Z,6.60
2017-11-12T08:48:08.226Z,6.70
2017-11-12T08:50:34.182Z,6.70
2017-11-12T08:53:00.125Z,6.70
2017-11-12T08:55:26.097Z,6.70
2017-11-12T08:57:53.518Z,7.00
2017-11-12T09:00:19.483Z,7.00
2017-11-12T09:02:45.435Z,7.10
2017-11-12T09:05:11.426Z,7.20
2017-11-12T09:07:37.426Z,7.20
2017-11-12T09:10:04.107Z,7.30
2017-11-12T09:12:30.091Z,7.30
2017-11-12T09:14:56.035Z,7.40
2017-11-12T09:17:22.027Z,7.50
2017-11-12T09:19:47.966Z,7.70
2017-11-12T09:22:13.909Z,7.80
2017-11-12T09:24:39.904Z,7.70
2017-11-12T09:27:05.898Z,7.60
2017-11-12T09:29:31.875Z,7.70
2017-11-12T09:31:58.603Z,7.50
2017-11-12T09:34:24.554Z,7.50
2017-11-12T09:36:51.246Z,7.90
2017-11-12T09:39:17.230Z,7.80
2017-11-12T09:41:43.218Z,7.80
2017-11-12T09:44:09.167Z,7.80
2017-11-12T09:46:35.108Z,7.90
2017-11-12T09:49:01.091Z,7.80
2017-11-12T09:51:27.776Z,7.90
2017-11-12T09:53:53.751Z,7.80
2017-11-12T09:56:19.703Z,8.00
2017-11-12T09:58:45.666Z,7.80
2017-11-12T10:01:11.627Z,8.00
2017-11-12T10:03:38.138Z,7.90
2017-11-12T10:06:04.859Z,8.20
2017-11-12T10:08:30.850Z,8.20
2017-11-12T10:10:56.841Z,8.40
2017-11-12T10:13:22.821Z,8.30
2017-11-12T10:15:48.757Z,8.40
2017-11-12T10:18:16.251Z,8.70
2017-11-12T10:20:42.245Z,8.70
2017-11-12T10:23:08.965Z,8.60
2017-11-12T10:25:34.909Z,8.60
2017-11-12T10:28:00.882Z,8.80
2017-11-12T10:30:26.823Z,8.90
2017-11-12T10:32:52.798Z,9.00
2017-11-12T10:35:18.738Z,9.00
2017-11-12T10:37:44.721Z,9.00
2017-11-12T10:40:10.693Z,8.80
2017-11-12T10:42:36.638Z,8.80
2017-11-12T10:45:02.617Z,8.90
2017-11-12T10:47:28.583Z,8.70
2017-11-12T10:49:54.531Z,8.60
2017-11-12T10:52:20.501Z,8.50
2017-11-12T10:54:48.297Z,8.50
2017-11-12T10:57:15.018Z,8.50
2017-11-12T10:59:41.013Z,8.50
2017-11-12T11:02:07.018Z,8.40
2017-11-12T11:04:33.703Z,8.40
2017-11-12T11:06:59.695Z,8.30
2017-11-12T11:09:26.390Z,8.50
2017-11-12T11:11:52.335Z,8.50
2017-11-12T11:14:18.311Z,8.60
2017-11-12T11:16:44.262Z,8.60
2017-11-12T11:19:10.970Z,8.80
2017-11-12T11:21:36.946Z,8.80
2017-11-12T11:24:02.926Z,8.80
2017-11-12T11:26:28.866Z,8.80
2017-11-12T11:28:54.815Z,8.80
2017-11-12T11:31:20.783Z,8.60
2017-11-12T11:33:46.727Z,8.50
2017-11-12T11:36:13.455Z,8.50
2017-11-12T11:38:39.406Z,8.50
2017-11-12T11:41:05.352Z,8.20
2017-11-12T11:43:32.083Z,8.40
2017-11-12T11:45:58.027Z,8.30
2017-11-12T11:48:23.994Z,8.40
2017-11-12T11:50:49.956Z,8.30
2017-11-12T11:53:15.935Z,8.40
2017-11-12T11:55:41.882Z,8.50
2017-11-12T11:58:08.657Z,8.50
2017-11-12T12:00:34.661Z,8.50
2017-11-12T12:03:00.643Z,8.40
2017-11-12T12:05:26.615Z,8.30
2017-11-12T12:07:52.550Z,8.40
2017-11-12T12:10:18.534Z,8.30
2017-11-12T12:12:44.514Z,8.20
2017-11-12T12:15:10.482Z,8.10
2017-11-12T12:17:36.454Z,8.10
2017-11-12T12:20:02.403Z,8.10
2017-11-12T12:22:28.402Z,7.90
2017-11-12T12:24:55.137Z,8.00
2017-11-12T12:27:21.073Z,8.00
2017-11-12T12:29:47.012Z,8.00
2017-11-12T12:32:12.986Z,8.10
2017-11-12T12:34:38.970Z,7.90
2017-11-12T12:37:04.951Z,8.00
2017-11-12T12:39:30.907Z,7.90
2017-11-12T12:41:56.858Z,7.90
2017-11-12T12:44:22.834Z,7.90
2017-11-12T12:46:48.809Z,7.90
2017-11-12T12:49:14.789Z,8.00
2017-11-12T12:51:40.744Z,7.90
2017-11-12T12:54:06.770Z,7.90
2017-11-12T12:56:33.464Z,8.00
2017-11-12T12:58:59.444Z,8.00
2017-11-12T13:01:25.422Z,7.80
2017-11-12T13:03:51.351Z,7.80
2017-11-12T13:06:17.323Z,7.90
2017-11-12T13:08:43.335Z,8.00
2017-11-12T13:11:09.326Z,7.90
2017-11-12T13:13:35.267Z,7.80
2017-11-12T13:16:01.250Z,7.80
2017-11-12T13:18:27.185Z,7.80
2017-11-12T13:20:53.123Z,7.70
2017-11-12T13:23:19.094Z,7.80
2017-11-12T13:25:45.039Z,7.70
2017-11-12T13:28:11.798Z,7.60
2017-11-12T13:30:37.738Z,7.60
2017-11-12T13:33:04.459Z,7.60
2017-11-12T13:35:30.430Z,7.60
2017-11-12T13:37:57.115Z,7.80
2017-11-12T13:40:23.082Z,7.70
2017-11-12T13:42:49.057Z,7.70
2017-11-12T13:45:15.794Z,7.70
2017-11-12T13:47:41.964Z,7.60
2017-11-12T13:50:07.959Z,7.60
2017-11-12T13:52:33.937Z,7.50
2017-11-12T13:54:59.878Z,7.70
2017-11-12T13:57:25.894Z,7.80
2017-11-12T13:59:52.618Z,7.50
2017-11-12T14:02:18.566Z,7.60
2017-11-12T14:04:44.659Z,7.50
2017-11-12T14:07:10.634Z,7.50
2017-11-12T14:09:36.587Z,7.60
2017-11-12T14:12:03.311Z,7.30
2017-11-12T14:14:29.255Z,7.30
2017-11-12T14:16:56.744Z,7.60
2017-11-12T14:19:23.430Z,7.50
2017-11-12T14:21:49.422Z,7.50
2017-11-12T14:24:15.393Z,7.60
2017-11-12T14:26:41.374Z,7.50
2017-11-12T14:29:07.359Z,7.60
2017-11-12T14:31:33.329Z,7.50
2017-11-12T14:33:59.346Z,7.40
2017-11-12T14:36:25.299Z,7.60
2017-11-12T14:38:51.293Z,7.60
2017-11-12T14:41:17.987Z,7.60
2017-11-12T14:43:43.962Z,7.60
2017-11-12T14:46:10.723Z,7.50
2017-11-12T14:48:37.407Z,7.30
2017-11-12T14:51:03.377Z,7.30
2017-11-12T14:53:29.314Z,7.20
2017-11-12T14:55:55.314Z,7.20
2017-11-12T14:58:21.298Z,7.20
2017-11-12T15:00:47.283Z,7.10
2017-11-12T15:03:13.292Z,7.10
2017-11-12T15:05:40.044Z,6.90
2017-11-12T15:08:06.766Z,6.80
2017-11-12T15:10:32.714Z,6.80
2017-11-12T15:13:00.150Z,6.80
2017-11-12T15:15:26.154Z,6.80
2017-11-12T15:17:52.845Z,6.70
2017-11-12T15:20:18.795Z,6.60
2017-11-12T15:22:44.782Z,6.60
2017-11-12T15:25:11.579Z,6.70
2017-11-12T15:27:37.580Z,6.60
2017-11-12T15:30:03.526Z,6.70
2017-11-12T15:32:29.510Z,6.70
2017-11-12T15:34:55.506Z,6.70
2017-11-12T15:37:21.450Z,6.60
2017-11-12T15:39:47.463Z,6.70
2017-11-12T15:42:13.438Z,6.70
2017-11-12T15:44:39.396Z,6.60
2017-11-12T15:47:05.387Z,6.60
2017-11-12T15:49:31.367Z,6.60
2017-11-12T15:51:57.336Z,6.60
2017-11-12T15:54:23.306Z,6.60
2017-11-12T15:56:49.278Z,6.60
2017-11-12T15:59:15.281Z,6.60
2017-11-12T16:01:41.317Z,6.60
2017-11-12T16:04:07.263Z,6.60
2017-11-12T16:06:33.276Z,6.60
2017-11-12T16:08:59.257Z,6.60
2017-11-12T16:11:25.239Z,6.70
2017-11-12T16:13:51.222Z,6.60
2017-11-12T16:16:17.926Z,6.50
2017-11-12T16:18:43.894Z,6.50
2017-11-12T16:21:09.942Z,6.60
2017-11-12T16:23:35.890Z,6.50
2017-11-12T16:26:01.829Z,6.50
2017-11-12T16:28:27.803Z,6.50
2017-11-12T16:30:53.750Z,6.50
2017-11-12T16:33:19.718Z,6.50
2017-11-12T16:35:45.654Z,6.50
2017-11-12T16:38:11.662Z,6.60
2017-11-12T16:40:37.602Z,6.70
2017-11-12T16:43:03.543Z,6.40
2017-11-12T16:45:29.513Z,6.40
2017-11-12T16:47:56.196Z,6.30
2017-11-12T16:50:22.187Z,6.30
2017-11-12T16:52:48.126Z,6.30
2017-11-12T16:55:14.070Z,6.20
2017-11-12T16:57:40.062Z,6.10
2017-11-12T17:00:06.010Z,6.20
2017-11-12T17:02:31.989Z,6.20
2017-11-12T17:04:58.676Z,6.10
2017-11-12T17:07:24.666Z,6.10
2017-11-12T17:09:50.603Z,6.20
2017-11-12T17:12:17.340Z,6.00
2017-11-12T17:14:43.283Z,6.00
2017-11-12T17:17:09.232Z,6.00
2017-11-12T17:19:35.986Z,6.00
2017-11-12T17:22:02.666Z,5.90
2017-11-12T17:24:28.617Z,5.90
2017-11-12T17:26:54.629Z,5.80
2017-11-12T17:29:20.579Z,5.70
2017-11-12T17:31:46.525Z,5.70
2017-11-12T17:34:12.509Z,5.60
2017-11-12T17:36:38.492Z,5.50
2017-11-12T17:39:04.435Z,5.60
2017-11-12T17:41:30.419Z,5.60
2017-11-12T17:43:57.098Z,5.60
2017-11-12T17:46:23.038Z,5.50
2017-11-12T17:48:49.019Z,5.50
2017-11-12T17:51:14.962Z,5.50
2017-11-12T17:53:40.976Z,5.50
2017-11-12T17:56:06.922Z,5.50
2017-11-12T17:58:32.861Z,5.50
2017-11-12T18:01:00.333Z,5.50
2017-11-12T18:03:26.321Z,5.50
2017-11-12T18:05:52.323Z,5.50
2017-11-12T18:08:18.275Z,5.50
2017-11-12T18:10:44.957Z,5.50
2017-11-12T18:13:10.981Z,5.50
2017-11-12T18:15:36.921Z,5.50
2017-11-12T18:18:02.866Z,5.40
2017-11-12T18:20:28.846Z,5.40
2017-11-12T18:22:54.802Z,5.40
2017-11-12T18:25:21.523Z,5.40
2017-11-12T18:27:47.466Z,5.40
2017-11-12T18:30:13.443Z,5.40
2017-11-12T18:32:39.472Z,5.40
2017-11-12T18:35:05.423Z,5.40
2017-11-12T18:37:31.369Z,5.40
2017-11-12T18:39:57.392Z,5.30
2017-11-12T18:42:23.346Z,5.30
2017-11-12T18:44:49.354Z,5.40
2017-11-12T18:47:15.347Z,5.50
2017-11-12T18:49:41.310Z,5.40
2017-11-12T18:52:08.076Z,5.30
2017-11-12T18:54:34.262Z,5.30
2017-11-12T19:00:01.361Z,5.20
2017-11-12T19:02:33.638Z,5.20
2017-11-12T19:04:59.597Z,5.10
2017-11-12T19:07:35.574Z,5.10
2017-11-12T19:10:01.563Z,5.10
2017-11-12T19:12:28.486Z,5.10
2017-11-12T19:14:55.211Z,5.10
2017-11-12T19:17:25.070Z,5.10
2017-11-12T19:19:51.795Z,5.10
2017-11-12T19:22:20.592Z,5.00
2017-11-12T19:25:01.591Z,5.00
2017-11-12T19:27:29.490Z,5.00
2017-11-12T19:29:56.212Z,5.00
2017-11-12T19:32:22.171Z,5.00
2017-11-12T19:34:48.905Z,5.00
2017-11-12T19:37:14.850Z,5.00
2017-11-12T19:39:40.791Z,5.00
2017-11-12T19:42:06.770Z,4.90
2017-11-12T19:44:32.735Z,4.90
2017-11-12T19:46:58.732Z,4.90
2017-11-12T19:49:24.674Z,4.90
2017-11-12T19:51:50.662Z,4.80
2017-11-12T19:54:16.639Z,4.90
2017-11-12T19:56:42.614Z,4.70
2017-11-12T19:59:08.590Z,4.80
2017-11-12T20:01:35.282Z,4.60
2017-11-12T20:04:01.268Z,4.50
2017-11-12T20:06:27.969Z,4.70
2017-11-12T20:08:53.912Z,4.60
2017-11-12T20:11:19.930Z,4.50
2017-11-12T20:13:45.879Z,4.50
2017-11-12T20:16:11.822Z,4.50
2017-11-12T20:18:37.807Z,4.50
2017-11-12T20:21:04.517Z,4.50
2017-11-12T20:23:30.496Z,4.50
2017-11-12T20:25:57.174Z,4.70
2017-11-12T20:28:23.154Z,4.60
2017-11-12T20:30:49.124Z,4.60
2017-11-12T20:33:15.842Z,4.60
2017-11-12T20:35:42.533Z,4.60
2017-11-12T20:38:08.501Z,4.60
2017-11-12T20:40:34.494Z,4.60
2017-11-12T20:43:01.187Z,4.30
2017-11-12T20:45:27.138Z,4.30
2017-11-12T20:47:53.129Z,4.20
2017-11-12T20:50:19.111Z,4.30
2017-11-12T20:52:46.080Z,4.20
2017-11-12T20:55:12.034Z,4.10
2017-11-12T20:57:38.047Z,4.10
2017-11-12T21:00:04.022Z,4.20
2017-11-12T21:02:31.000Z,4.10
2017-11-12T21:04:57.946Z,4.10
2017-11-12T21:07:23.985Z,4.00
2017-11-12T21:09:49.867Z,3.90
2017-11-12T21:12:15.900Z,4.00
2017-11-12T21:14:41.850Z,4.10
2017-11-12T21:17:07.827Z,4.00
2017-11-12T21:19:50.674Z,4.00
2017-11-12T21:22:21.691Z,4.00
2017-11-12T21:24:48.407Z,4.10
2017-11-12T21:27:19.196Z,4.10
2017-11-12T21:29:51.267Z,4.10
2017-11-12T21:32:18.062Z,4.10
2017-11-12T21:34:51.150Z,4.10
2017-11-12T21:37:17.867Z,4.10
2017-11-12T21:39:43.847Z,4.10
2017-11-12T21:42:09.821Z,4.10
2017-11-12T21:44:35.802Z,4.10
2017-11-12T21:47:01.768Z,4.00
2017-11-12T21:49:27.710Z,4.00
2017-11-12T21:51:53.677Z,4.10
2017-11-12T21:54:19.619Z,4.00
2017-11-12T21:56:45.641Z,4.10
2017-11-12T21:59:11.595Z,4.10
2017-11-12T22:01:38.294Z,4.10
2017-11-12T22:04:04.298Z,4.00
2017-11-12T22:06:30.983Z,4.20
2017-11-12T22:08:56.927Z,4.20
2017-11-12T22:11:22.906Z,4.10
2017-11-12T22:13:48.907Z,4.10
2017-11-12T22:16:14.847Z,4.00
2017-11-12T22:18:40.838Z,4.00
2017-11-12T22:21:07.526Z,4.00
2017-11-12T22:23:33.493Z,4.00
2017-11-12T22:26:00.247Z,4.20
2017-11-12T22:28:26.211Z,4.10
2017-11-12T22:30:52.890Z,4.00
2017-11-12T22:33:18.842Z,4.00
2017-11-12T22:35:44.791Z,4.10
2017-11-12T22:38:10.766Z,4.10
2017-11-12T22:40:37.516Z,3.80
2017-11-12T22:43:04.227Z,3.80
2017-11-12T22:45:30.210Z,3.70
2017-11-12T22:47:56.894Z,3.70
2017-11-12T22:50:22.839Z,3.60
2017-11-12T22:52:48.823Z,3.70
2017-11-12T22:55:15.566Z,3.50
2017-11-12T22:57:41.546Z,3.50
2017-11-12T23:00:07.531Z,3.40
2017-11-12T23:02:33.494Z,3.40
2017-11-12T23:05:00.183Z,3.20
2017-11-12T23:07:26.154Z,3.20
2017-11-12T23:09:52.134Z,3.20
2017-11-12T23:12:18.157Z,3.20
2017-11-12T23:14:44.846Z,3.10
2017-11-12T23:17:10.787Z,3.10
2017-11-12T23:19:36.784Z,3.10
2017-11-12T23:22:02.731Z,3.10
2017-11-12T23:24:28.710Z,3.10
2017-11-12T23:26:54.691Z,3.00
2017-11-12T23:29:20.677Z,3.10
2017-11-12T23:31:46.641Z,3.20
2017-11-12T23:34:12.610Z,3.10
2017-11-12T23:36:38.554Z,3.10
2017-11-12T23:39:04.509Z,3.00
2017-11-12T23:41:30.489Z,3.20
2017-11-12T23:43:57.179Z,3.30
2017-11-12T23:46:23.121Z,3.30
2017-11-12T23:48:49.114Z,3.20
2017-11-12T23:51:15.828Z,3.10
2017-11-12T23:53:41.818Z,3.10
2017-11-12T23:56:07.769Z,3.20
2017-11-12T23:58:33.713Z,3.20
